Time;durP1;ratioP1;P1;durP2;ratioP2;P2;SDS_P1;SDS_P2;PMS_P1;PMS_P2;Temp;Humidity;BMP_temperature;BMP_pressure;BME280_temperature;BME280_humidity;BME280_pressure;Samples;Min_cycle;Max_cycle;Signal;HPM_P1;HPM_P2
2023/09/26 00:04:47;;;;;;;5.47;3.90;;;;;;;18.85;100.00;101714.97;4997310;57;1140985;-71
2023/09/26 00:09:52;;;;;;;12.37;3.77;;;;;;;18.86;100.00;101719.34;5019711;57;1140930;-73
2023/09/26 00:14:58;;;;;;;7.87;4.22;;;;;;;18.84;100.00;101715.47;5009643;57;1143450;-72
2023/09/26 00:20:51;;;;;;;8.43;4.55;;;;;;;18.84;100.00;101719.48;5000665;57;1140874;-71
2023/09/26 00:25:11;;;;;;;4.95;3.98;;;;;;;18.85;100.00;101712.29;4989206;57;1140805;-71
2023/09/26 00:30:17;;;;;;;7.12;4.12;;;;;;;18.82;100.00;101706.72;4998469;57;1140802;-72
2023/09/26 00:35:23;;;;;;;4.85;3.98;;;;;;;18.80;100.00;101704.67;4989276;57;1141096;-71
2023/09/26 00:40:29;;;;;;;10.30;4.47;;;;;;;18.80;100.00;101708.69;4962211;57;1146511;-72
2023/09/26 00:45:35;;;;;;;9.53;4.67;;;;;;;18.80;100.00;101706.01;5039759;57;1143284;-71
2023/09/26 00:50:43;;;;;;;7.40;4.30;;;;;;;18.80;100.00;101703.33;4955355;57;1140827;-74
2023/09/26 00:55:57;;;;;;;9.75;4.67;;;;;;;18.79;100.00;101700.30;4916477;57;1141379;-72
2023/09/26 01:01:05;;;;;;;10.43;4.53;;;;;;;18.81;100.00;101702.34;5066692;56;1141849;-72
2023/09/26 01:06:10;;;;;;;4.83;4.30;;;;;;;18.86;100.00;101700.58;5040400;56;1143150;-72
2023/09/26 01:11:17;;;;;;;10.65;4.70;;;;;;;18.87;100.00;101695.08;5008826;57;1140639;-72
2023/09/26 01:16:23;;;;;;;8.56;4.74;;;;;;;18.86;100.00;101693.88;5110204;56;1143086;-71
2023/09/26 01:21:30;;;;;;;11.48;4.95;;;;;;;18.86;100.00;101699.23;4998883;56;1141202;-72
2023/09/26 01:26:37;;;;;;;5.70;5.07;;;;;;;18.87;100.00;101696.91;5112134;55;1143108;-72
2023/09/26 01:31:43;;;;;;;8.23;4.53;;;;;;;18.86;100.00;101693.88;5095453;55;1140752;-71
2023/09/26 01:36:49;;;;;;;13.98;5.15;;;;;;;18.82;100.00;101693.31;4941730;56;1141016;-72
2023/09/26 01:41:54;;;;;;;10.94;5.52;;;;;;;18.78;100.00;101700.47;4889795;56;1142886;-72
2023/09/26 01:47:00;;;;;;;9.10;4.92;;;;;;;18.75;100.00;101695.39;4997155;57;1143163;-72
2023/09/26 01:52:06;;;;;;;7.45;5.67;;;;;;;18.75;100.00;101690.87;4935946;58;1140484;-73
2023/09/26 01:57:11;;;;;;;9.03;5.72;;;;;;;18.76;100.00;101690.38;4935346;58;1140779;-72
2023/09/26 02:02:17;;;;;;;11.50;5.03;;;;;;;18.75;100.00;101688.19;4957117;57;1140967;-70
2023/09/26 02:07:23;;;;;;;10.93;5.53;;;;;;;18.79;100.00;101686.89;4937412;58;1261015;-73
2023/09/26 02:12:28;;;;;;;12.98;6.53;;;;;;;18.80;100.00;101684.56;4939592;57;1142859;-72
2023/09/26 02:17:35;;;;;;;11.80;5.70;;;;;;;18.79;100.00;101680.20;4940357;57;1142870;-71
2023/09/26 02:22:50;;;;;;;8.03;6.08;;;;;;;18.75;100.00;101676.13;4959245;57;1143431;-72
2023/09/26 02:27:56;;;;;;;12.73;6.08;;;;;;;18.58;100.00;101662.09;4980100;57;1141106;-72
2023/09/26 02:33:01;;;;;;;9.30;6.03;;;;;;;18.58;100.00;101662.09;4944202;57;1143058;-71
2023/09/26 02:38:08;;;;;;;10.70;6.70;;;;;;;18.58;100.00;101662.97;4884635;58;1140717;-71
2023/09/26 02:43:13;;;;;;;10.15;6.33;;;;;;;18.55;100.00;101663.22;4865615;58;1142917;-73
2023/09/26 02:48:19;;;;;;;12.93;6.87;;;;;;;18.53;100.00;101660.33;4895872;57;1142750;-71
2023/09/26 02:53:25;;;;;;;12.16;6.22;;;;;;;18.48;100.00;101659.92;5015500;57;1142874;-72
2023/09/26 02:58:30;;;;;;;8.40;5.78;;;;;;;18.46;100.00;101664.08;4995271;57;1142744;-72
2023/09/26 03:03:37;;;;;;;15.15;6.03;;;;;;;18.46;100.00;101665.91;4912356;57;1140980;-71
2023/09/26 03:08:43;;;;;;;13.00;5.85;;;;;;;18.49;100.00;101665.11;4935615;57;1142996;-71
2023/09/26 03:13:49;;;;;;;6.75;5.70;;;;;;;18.50;100.00;101663.28;4915968;57;1142780;-71
2023/09/26 03:18:56;;;;;;;8.63;6.05;;;;;;;18.51;100.00;101664.48;4916729;57;1140757;-72
2023/09/26 03:24:01;;;;;;;7.46;5.40;;;;;;;18.53;100.00;101658.98;4978018;57;1140936;-72
2023/09/26 03:29:07;;;;;;;12.10;5.65;;;;;;;18.56;100.00;101661.38;5007498;57;1140960;-72
2023/09/26 03:34:13;;;;;;;9.00;6.60;;;;;;;18.51;100.00;101651.58;5078560;56;1143088;-71
2023/09/26 03:39:18;;;;;;;16.17;6.12;;;;;;;18.48;100.00;101648.72;5098642;57;1141170;-72
2023/09/26 03:44:24;;;;;;;13.45;5.67;;;;;;;18.45;100.00;101649.48;5078850;55;1143091;-72
2023/09/26 03:49:30;;;;;;;12.50;6.20;;;;;;;18.43;100.00;101650.12;5030101;56;1142968;-71
2023/09/26 03:54:38;;;;;;;7.03;5.65;;;;;;;18.42;100.00;101651.11;5012424;57;1143127;-71
2023/09/26 03:59:45;;;;;;;11.08;6.15;;;;;;;18.44;100.00;101647.30;5034231;57;1140832;-72
2023/09/26 04:04:51;;;;;;;7.33;6.45;;;;;;;18.43;100.00;101648.29;4933829;57;1142907;-71
2023/09/26 04:09:57;;;;;;;10.10;6.17;;;;;;;18.39;100.00;101646.87;4942939;57;1141067;-71
2023/09/26 04:15:03;;;;;;;10.32;5.80;;;;;;;18.36;100.00;101640.45;4963289;57;1142991;-71
2023/09/26 04:20:19;;;;;;;9.63;5.43;;;;;;;18.31;100.00;101637.37;4992389;56;1142676;-73
2023/09/26 04:25:19;;;;;;;11.40;5.95;;;;;;;18.32;100.00;101635.55;5014587;57;1140802;-72
2023/09/26 04:30:25;;;;;;;12.60;6.22;;;;;;;18.34;100.00;101630.86;5046843;56;1178556;-73
2023/09/26 04:35:31;;;;;;;12.05;6.70;;;;;;;18.31;100.00;101637.88;5083834;56;1142731;-72
2023/09/26 04:40:36;;;;;;;8.07;6.77;;;;;;;18.26;100.00;101643.64;5047205;56;1143014;-73
2023/09/26 04:45:51;;;;;;;10.70;6.50;;;;;;;18.23;100.00;101646.10;5088648;56;1141098;-72
2023/09/26 04:50:54;;;;;;;13.33;6.40;;;;;;;18.18;100.00;101651.55;5035588;56;1143131;-73
2023/09/26 04:56:02;;;;;;;7.80;6.22;;;;;;;18.16;100.00;101645.48;5072908;56;1142819;-73
2023/09/26 05:01:16;;;;;;;8.08;5.78;;;;;;;18.19;100.00;101647.85;5096259;56;1140764;-75
2023/09/26 05:06:21;;;;;;;21.27;7.53;;;;;;;18.24;100.00;101642.44;4998565;57;1140707;-73
2023/09/26 05:11:28;;;;;;;15.47;7.00;;;;;;;18.27;100.00;101645.33;5005186;57;1142774;-74
2023/09/26 05:16:34;;;;;;;17.45;7.15;;;;;;;18.28;100.00;101642.52;5012152;56;1143166;-72
2023/09/26 05:21:40;;;;;;;12.88;6.25;;;;;;;18.25;100.00;101646.81;5045695;57;1143049;-74
2023/09/26 05:26:45;;;;;;;13.40;6.60;;;;;;;18.24;100.00;101645.12;5006765;56;1143229;-72
2023/09/26 05:31:51;;;;;;;12.13;6.60;;;;;;;18.20;100.00;101641.02;4995278;56;1142782;-74
2023/09/26 05:36:56;;;;;;;10.03;6.92;;;;;;;18.15;100.00;101648.66;5083260;56;1143049;-72
2023/09/26 05:42:02;;;;;;;11.55;7.08;;;;;;;18.12;100.00;101653.44;4990882;56;1142899;-73
2023/09/26 05:47:07;;;;;;;13.32;6.58;;;;;;;18.13;100.00;101653.80;5046826;56;1207202;-75
2023/09/26 05:52:13;;;;;;;11.63;7.25;;;;;;;18.13;100.00;101659.99;5024525;56;1142605;-74
2023/09/26 05:57:19;;;;;;;9.33;7.07;;;;;;;18.10;100.00;101660.27;4913674;57;1142991;-74
2023/09/26 06:02:25;;;;;;;14.18;8.23;;;;;;;18.03;100.00;101655.10;4957133;57;1179401;-75
2023/09/26 06:07:31;;;;;;;10.60;7.37;;;;;;;18.01;100.00;101649.56;4986940;57;1226639;-74
2023/09/26 06:12:39;;;;;;;10.00;8.63;;;;;;;18.04;100.00;101654.61;4988735;57;1143009;-68
2023/09/26 06:17:44;;;;;;;16.35;9.03;;;;;;;18.02;100.00;101645.91;4929878;56;1142694;-65
2023/09/26 06:22:50;;;;;;;8.60;7.47;;;;;;;18.02;100.00;101653.44;4958235;57;1143048;-68
2023/09/26 06:27:56;;;;;;;12.53;8.20;;;;;;;18.00;100.00;101656.75;4949281;57;1140639;-67
2023/09/26 06:33:02;;;;;;;11.87;8.97;;;;;;;18.07;100.00;101653.84;4972746;57;1143118;-68
2023/09/26 06:38:07;;;;;;;10.35;8.60;;;;;;;18.04;100.00;101658.13;5030421;57;1142977;-73
2023/09/26 06:43:13;;;;;;;17.50;9.10;;;;;;;18.04;100.00;101660.81;4993771;57;1142821;-72
2023/09/26 06:48:19;;;;;;;13.68;8.53;;;;;;;18.09;100.00;101654.56;4981920;57;1248197;-72
2023/09/26 06:53:24;;;;;;;11.50;8.05;;;;;;;18.17;100.00;101647.17;4955650;57;1249876;-73
2023/09/26 06:58:30;;;;;;;11.53;8.70;;;;;;;18.23;100.00;101643.42;4937352;57;1260025;-72
2023/09/26 07:03:36;;;;;;;12.00;8.57;;;;;;;18.36;100.00;101643.63;4978752;57;1258782;-75
2023/09/26 07:08:44;;;;;;;10.50;8.45;;;;;;;18.56;100.00;101647.98;4959135;57;1250519;-72
2023/09/26 07:13:50;;;;;;;12.20;8.98;;;;;;;18.87;100.00;101645.48;4942350;57;1259511;-73
2023/09/26 07:18:55;;;;;;;11.80;8.93;;;;;;;19.23;100.00;101648.34;5064084;56;1259134;-75
2023/09/26 07:24:02;;;;;;;11.90;9.63;;;;;;;19.32;100.00;101650.97;5022955;56;1142947;-71
2023/09/26 07:29:09;;;;;;;9.23;8.33;;;;;;;19.54;100.00;101649.77;5022408;56;1142982;-76
2023/09/26 07:34:15;;;;;;;15.18;8.85;;;;;;;19.62;100.00;101647.66;4965441;57;1168982;-73
2023/09/26 07:39:21;;;;;;;14.05;9.93;;;;;;;19.65;100.00;101646.87;5019630;57;1143084;-74
2023/09/26 07:44:26;;;;;;;25.75;9.28;;;;;;;19.81;100.00;101651.58;5033499;57;1142961;-73
2023/09/26 07:49:32;;;;;;;10.05;8.70;;;;;;;20.07;100.00;101648.98;4976420;56;1143021;-73
2023/09/26 07:54:37;;;;;;;18.60;7.95;;;;;;;20.26;100.00;101643.96;4959469;57;1142989;-75
2023/09/26 07:59:43;;;;;;;14.47;8.90;;;;;;;20.34;100.00;101646.70;5069050;56;1142891;-74
2023/09/26 08:04:49;;;;;;;15.98;10.03;;;;;;;20.40;100.00;101649.31;4967363;57;1204894;-73
2023/09/26 08:10:00;;;;;;;14.80;9.50;;;;;;;20.40;100.00;101650.66;4993679;56;1145079;-73
2023/09/26 08:15:02;;;;;;;9.00;7.65;;;;;;;20.30;100.00;101649.38;4959340;57;1142871;-73
2023/09/26 08:20:14;;;;;;;10.20;8.20;;;;;;;20.40;100.00;101644.78;4996651;56;1141158;-74
2023/09/26 08:25:16;;;;;;;15.30;8.18;;;;;;;20.46;100.00;101645.52;4991564;56;1142870;-76
2023/09/26 08:30:21;;;;;;;12.00;7.87;;;;;;;20.47;100.00;101646.36;5088126;56;1142809;-74
2023/09/26 08:35:27;;;;;;;10.80;6.80;;;;;;;20.43;100.00;101643.13;4970706;56;1143139;-74
2023/09/26 08:40:33;;;;;;;8.78;7.45;;;;;;;20.46;100.00;101651.39;4976117;57;1143115;-75
2023/09/26 08:45:39;;;;;;;11.75;7.42;;;;;;;20.50;100.00;101644.18;4995836;57;1140738;-75
2023/09/26 08:50:44;;;;;;;11.25;7.67;;;;;;;20.54;100.00;101644.72;5101375;56;1142697;-73
2023/09/26 08:55:50;;;;;;;8.68;6.78;;;;;;;20.54;100.00;101642.88;5079113;56;1142583;-73
2023/09/26 09:00:57;;;;;;;13.62;7.67;;;;;;;20.55;100.00;101633.81;5078972;56;1140695;-72
2023/09/26 09:06:02;;;;;;;8.88;5.78;;;;;;;20.62;100.00;101626.80;5098921;56;1143098;-75
2023/09/26 09:11:08;;;;;;;10.63;7.15;;;;;;;20.69;100.00;101623.83;5079385;57;1140895;-74
2023/09/26 09:16:20;;;;;;;10.53;6.12;;;;;;;20.82;100.00;101626.59;5078693;56;1143087;-74
2023/09/26 09:21:34;;;;;;;12.33;6.13;;;;;;;20.92;100.00;101629.54;5068608;56;1143384;-75
2023/09/26 09:26:38;;;;;;;18.40;6.76;;;;;;;20.96;100.00;101620.63;4993375;56;1143279;-76
2023/09/26 09:31:44;;;;;;;9.27;7.00;;;;;;;20.97;100.00;101625.00;4928658;57;1143055;-76
2023/09/26 09:36:50;;;;;;;10.23;6.55;;;;;;;21.04;100.00;101618.00;4980372;57;1140945;-74
2023/09/26 09:41:58;;;;;;;14.60;7.60;;;;;;;21.10;100.00;101611.95;5084127;56;1142807;-73
2023/09/26 09:47:05;;;;;;;13.68;6.83;;;;;;;21.13;100.00;101611.64;5056232;56;1143024;-73
2023/09/26 09:52:12;;;;;;;10.13;5.72;;;;;;;21.19;100.00;101608.81;5027740;57;1143005;-74
2023/09/26 09:57:20;;;;;;;12.07;6.65;;;;;;;21.17;100.00;101610.83;4995145;57;1143077;-75
2023/09/26 10:02:26;;;;;;;12.55;6.75;;;;;;;21.18;100.00;101611.17;4920215;57;1142800;-75
2023/09/26 10:07:34;;;;;;;9.16;6.62;;;;;;;21.29;100.00;101605.02;4996243;56;1142812;-72
2023/09/26 10:12:41;;;;;;;13.00;8.03;;;;;;;21.35;100.00;101603.53;4969493;57;1140857;-73
2023/09/26 10:17:50;;;;;;;12.63;6.85;;;;;;;21.35;100.00;101599.50;5026062;56;1142869;-73
2023/09/26 10:23:12;;;;;;;12.33;6.78;;;;;;;21.35;100.00;101602.19;5038478;56;1142895;-73
2023/09/26 10:28:17;;;;;;;;;;;;;;;21.42;100.00;101599.17;5063251;56;1142917;-74
2023/09/26 10:33:23;;;;;;;10.88;6.25;;;;;;;21.57;100.00;101589.45;5057424;56;978325;-73
2023/09/26 10:38:29;;;;;;;12.88;7.60;;;;;;;21.72;100.00;101587.80;5100830;55;1140969;-71
2023/09/26 10:43:35;;;;;;;9.00;6.40;;;;;;;21.74;100.00;101584.95;4949541;57;1142951;-74
2023/09/26 10:48:40;;;;;;;10.50;6.05;;;;;;;21.79;100.00;101581.27;5070318;56;1140968;-71
2023/09/26 10:53:46;;;;;;;13.70;6.10;;;;;;;22.02;100.00;101572.05;5012856;56;1142954;-75
2023/09/26 10:58:55;;;;;;;13.53;6.83;;;;;;;22.30;100.00;101572.57;5024927;56;1143152;-73
2023/09/26 11:04:01;;;;;;;12.20;6.78;;;;;;;22.41;100.00;101576.26;5085099;56;1143128;-69
2023/09/26 11:09:07;;;;;;;13.03;7.35;;;;;;;22.47;100.00;101578.25;4963626;57;1143244;-67
2023/09/26 11:14:13;;;;;;;10.08;7.42;;;;;;;22.54;100.00;101567.64;4952399;57;1143088;-68
2023/09/26 11:19:19;;;;;;;15.55;7.25;;;;;;;22.75;100.00;101565.23;4934486;58;1143184;-69
2023/09/26 11:24:35;;;;;;;9.53;6.45;;;;;;;23.00;100.00;101557.42;4911351;57;1142865;-67
2023/09/26 11:29:37;;;;;;;15.65;7.80;;;;;;;23.27;100.00;101549.36;4915307;57;1140819;-70
2023/09/26 11:34:44;;;;;;;17.27;7.80;;;;;;;23.13;100.00;101553.65;4916266;57;1143135;-73
2023/09/26 11:39:54;;;;;;;12.43;7.25;;;;;;;23.12;100.00;101547.08;5050089;56;1142850;-77
2023/09/26 11:45:00;;;;;;;8.38;6.55;;;;;;;23.18;100.00;101540.98;4996418;57;1142904;-74
2023/09/26 11:50:06;;;;;;;10.70;6.92;;;;;;;23.38;100.00;101537.31;4969012;57;1141083;-67
2023/09/26 11:55:19;;;;;;;9.78;6.90;;;;;;;23.61;100.00;101535.52;5060749;56;1142636;-69
2023/09/26 12:00:26;;;;;;;16.05;8.20;;;;;;;23.82;100.00;101532.17;5079934;55;1140804;-69
2023/09/26 12:05:32;;;;;;;11.65;8.08;;;;;;;23.91;100.00;101527.53;5035657;56;1142811;-75
2023/09/26 12:10:38;;;;;;;12.53;8.13;;;;;;;23.94;100.00;101529.36;4998137;57;1143347;-73
2023/09/26 12:15:44;;;;;;;14.33;8.23;;;;;;;23.96;100.00;101536.78;5014416;57;1143094;-72
2023/09/26 12:20:55;;;;;;;15.60;7.83;;;;;;;24.01;100.00;101530.81;5064726;56;1142986;-75
2023/09/26 12:25:57;;;;;;;14.13;7.37;;;;;;;24.09;100.00;101532.11;5078227;56;1143068;-76
2023/09/26 12:31:03;;;;;;;13.60;7.05;;;;;;;24.21;100.00;101531.98;5086282;56;1142993;-75
2023/09/26 12:36:08;;;;;;;15.68;8.46;;;;;;;24.37;100.00;101523.75;4959614;56;1143136;-72
2023/09/26 12:41:14;;;;;;;13.85;8.20;;;;;;;24.51;100.00;101528.84;5079379;56;1142928;-71
2023/09/26 12:46:20;;;;;;;10.78;8.50;;;;;;;24.46;100.00;101517.22;5099407;56;1143020;-74
2023/09/26 12:51:28;;;;;;;14.18;7.25;;;;;;;24.53;100.00;101517.33;5085891;55;1142996;-72
2023/09/26 12:56:33;;;;;;;15.58;8.00;;;;;;;24.66;100.00;101516.67;4985836;56;1143090;-74
2023/09/26 13:01:38;;;;;;;17.12;8.38;;;;;;;24.60;100.00;101497.95;5063460;56;1143271;-75
2023/09/26 13:06:44;;;;;;;20.90;8.88;;;;;;;24.70;100.00;101504.46;4937257;57;1143008;-75
2023/09/26 13:11:54;;;;;;;9.68;7.85;;;;;;;24.59;100.00;101497.66;4996388;56;1142941;-74
2023/09/26 13:17:03;;;;;;;14.47;8.55;;;;;;;24.59;100.00;101496.31;4996685;57;1141304;-72
2023/09/26 13:22:11;;;;;;;16.80;8.03;;;;;;;24.46;100.00;101493.39;5016090;56;1142918;-77
2023/09/26 13:27:17;;;;;;;10.70;7.62;;;;;;;24.37;100.00;101491.30;4915636;57;1143114;-72
2023/09/26 13:32:24;;;;;;;13.48;8.08;;;;;;;24.27;100.00;101488.55;4921748;58;1142910;-71
2023/09/26 13:37:29;;;;;;;11.88;7.40;;;;;;;24.24;100.00;101484.34;5015753;57;1142731;-74
2023/09/26 13:42:35;;;;;;;9.88;7.08;;;;;;;24.21;100.00;101477.92;4996382;57;1142798;-72
2023/09/26 13:47:41;;;;;;;11.97;6.93;;;;;;;24.25;100.00;101469.81;4997391;56;1141016;-73
2023/09/26 13:52:46;;;;;;;9.58;6.33;;;;;;;24.31;100.00;101468.20;5005042;56;1142932;-74
2023/09/26 13:57:52;;;;;;;18.65;6.35;;;;;;;24.34;100.00;101464.63;4917782;57;1140870;-73
2023/09/26 14:02:57;;;;;;;13.43;7.15;;;;;;;24.42;100.00;101467.77;4949452;56;1142969;-71
2023/09/26 14:08:04;;;;;;;12.15;6.95;;;;;;;24.47;100.00;101463.97;4952184;57;1142968;-74
2023/09/26 14:13:09;;;;;;;7.83;5.97;;;;;;;24.56;100.00;101456.62;4994030;56;1143040;-72
2023/09/26 14:18:15;;;;;;;16.65;8.43;;;;;;;24.56;100.00;101457.97;4996861;57;1140874;-71
2023/09/26 14:23:25;;;;;;;24.67;15.05;;;;;;;24.67;100.00;101458.33;5015026;56;1142908;-73
2023/09/26 14:28:31;;;;;;;13.18;7.65;;;;;;;24.85;100.00;101461.98;5078885;56;1145223;-74
2023/09/26 14:33:39;;;;;;;9.43;6.78;;;;;;;24.95;100.00;101449.02;4991879;56;1142958;-73
2023/09/26 14:38:45;;;;;;;21.23;7.50;;;;;;;24.92;100.00;101449.88;4920922;57;1141053;-72
2023/09/26 14:43:50;;;;;;;15.20;7.20;;;;;;;24.86;100.00;101442.02;4920597;56;1143155;-72
2023/09/26 14:48:56;;;;;;;20.93;7.43;;;;;;;24.84;100.00;101435.95;4980211;56;1143193;-74
2023/09/26 14:54:02;;;;;;;18.02;8.48;;;;;;;24.79;100.00;101431.11;5014785;57;1143239;-75
2023/09/26 14:59:09;;;;;;;17.07;7.78;;;;;;;24.75;100.00;101427.64;4995186;57;1142487;-73
2023/09/26 15:04:15;;;;;;;12.95;9.05;;;;;;;24.67;100.00;101423.67;5077966;56;1142992;-72
2023/09/26 15:09:20;;;;;;;17.45;7.67;;;;;;;24.54;100.00;101422.99;5015648;56;1142997;-73
2023/09/26 15:14:26;;;;;;;14.25;7.78;;;;;;;24.45;100.00;101419.53;5079105;56;1143049;-74
2023/09/26 15:19:32;;;;;;;12.25;7.72;;;;;;;24.37;100.00;101423.70;4945738;57;1142884;-73
2023/09/26 15:24:38;;;;;;;17.42;8.00;;;;;;;24.25;100.00;101422.50;5008541;57;1143105;-75
2023/09/26 15:29:44;;;;;;;15.90;8.00;;;;;;;24.18;100.00;101421.00;5074993;56;1142906;-71
2023/09/26 15:34:50;;;;;;;11.57;7.53;;;;;;;24.16;100.00;101422.21;4985682;57;1142970;-73
2023/09/26 15:39:56;;;;;;;20.60;8.30;;;;;;;24.16;100.00;101418.16;4988940;56;1143070;-72
2023/09/26 15:45:03;;;;;;;15.83;9.00;;;;;;;24.15;100.00;101415.12;5136240;55;1142956;-75
2023/09/26 15:50:09;;;;;;;18.05;9.53;;;;;;;24.15;100.00;101413.77;5094959;55;1142823;-74
2023/09/26 15:55:15;;;;;;;21.37;13.65;;;;;;;24.33;100.00;101418.84;5079898;56;1143038;-73
2023/09/26 16:00:23;;;;;;;14.83;8.15;;;;;;;24.32;100.00;101421.22;5183520;55;1145075;-73
2023/09/26 16:05:28;;;;;;;12.53;8.05;;;;;;;24.15;100.00;101419.18;4995675;56;1142724;-75
2023/09/26 16:10:34;;;;;;;17.12;8.10;;;;;;;24.03;100.00;101420.67;4995396;57;1142978;-72
2023/09/26 16:15:40;;;;;;;15.85;8.88;;;;;;;23.90;100.00;101419.12;5030697;56;1142853;-74
2023/09/26 16:20:46;;;;;;;15.78;8.45;;;;;;;23.78;100.00;101424.98;5003343;57;1142919;-75
2023/09/26 16:25:51;;;;;;;17.60;9.33;;;;;;;23.64;100.00;101420.89;4958988;57;1142913;-75
2023/09/26 16:30:57;;;;;;;13.83;8.68;;;;;;;23.49;100.00;101417.61;5050763;56;1142879;-73
2023/09/26 16:36:18;;;;;;;19.52;8.25;;;;;;;23.43;100.00;101428.28;5125697;56;1142859;-74
2023/09/26 16:41:24;;;;;;;14.30;9.60;;;;;;;23.32;100.00;101410.66;4926445;57;1143018;-76
2023/09/26 16:46:29;;;;;;;24.87;12.95;;;;;;;23.25;100.00;101415.08;4935052;56;1142917;-76
2023/09/26 16:51:35;;;;;;;16.90;9.80;;;;;;;23.17;100.00;101411.61;5096099;55;1145099;-75
2023/09/26 16:56:44;;;;;;;16.67;9.75;;;;;;;23.13;100.00;101413.82;5062381;56;1142979;-73
2023/09/26 17:01:51;;;;;;;147.53;127.92;;;;;;;23.08;100.00;101410.81;5016990;56;1142914;-75
2023/09/26 17:06:57;;;;;;;32.65;27.75;;;;;;;23.00;100.00;101414.41;5025438;56;1149206;-74
2023/09/26 17:12:02;;;;;;;20.82;13.40;;;;;;;22.87;100.00;101414.67;5068063;56;1145127;-73
2023/09/26 17:17:08;;;;;;;31.35;18.50;;;;;;;22.77;100.00;101414.87;5043910;56;1145161;-71
2023/09/26 17:22:14;;;;;;;29.20;15.40;;;;;;;22.68;100.00;101419.45;4995212;57;1145002;-72
2023/09/26 17:27:19;;;;;;;22.55;13.08;;;;;;;22.60;100.00;101424.05;5072576;56;1144997;-75
2023/09/26 17:32:25;;;;;;;25.08;13.62;;;;;;;22.47;100.00;101419.19;4995643;58;1145099;-74
2023/09/26 17:37:31;;;;;;;27.10;16.77;;;;;;;22.42;100.00;101412.16;5061489;56;1145284;-74
2023/09/26 17:42:36;;;;;;;23.43;14.80;;;;;;;22.36;100.00;101421.77;5078184;56;1145187;-75
2023/09/26 17:47:42;;;;;;;23.07;14.60;;;;;;;22.33;100.00;101422.61;5115559;55;1145219;-74
2023/09/26 17:52:47;;;;;;;20.23;13.40;;;;;;;22.26;100.00;101417.09;5078077;56;1145190;-75
2023/09/26 17:57:53;;;;;;;25.40;18.95;;;;;;;22.22;100.00;101416.26;5088012;56;1145441;-75
2023/09/26 18:02:59;;;;;;;44.67;24.30;;;;;;;22.13;100.00;101411.92;5152042;55;1145010;-72
2023/09/26 18:08:05;;;;;;;30.54;21.06;;;;;;;22.07;100.00;101419.67;5125863;55;1145035;-76
2023/09/26 18:13:10;;;;;;;24.67;15.08;;;;;;;21.97;100.00;101417.64;5082117;56;1145322;-73
2023/09/26 18:18:18;;;;;;;27.90;13.95;;;;;;;21.89;100.00;101417.64;5086197;56;1144922;-75
2023/09/26 18:23:23;;;;;;;25.57;15.30;;;;;;;21.72;100.00;101422.20;5098503;56;1145140;-75
2023/09/26 18:28:31;;;;;;;19.95;14.55;;;;;;;21.57;100.00;101431.13;5084425;56;1144967;-76
2023/09/26 18:33:36;;;;;;;28.08;14.50;;;;;;;21.48;100.00;101429.45;5021513;56;1145169;-75
2023/09/26 18:38:42;;;;;;;23.95;15.30;;;;;;;21.35;100.00;101435.34;5122026;56;1144846;-75
2023/09/26 18:43:48;;;;;;;27.67;15.25;;;;;;;21.30;100.00;101430.45;5088068;56;1144850;-76
2023/09/26 18:48:54;;;;;;;23.23;15.00;;;;;;;21.24;100.00;101434.30;5118824;56;1145246;-73
2023/09/26 18:54:00;;;;;;;29.10;15.95;;;;;;;21.18;100.00;101433.09;5171788;56;1144886;-72
2023/09/26 18:59:05;;;;;;;21.70;16.82;;;;;;;21.13;100.00;101432.74;4939990;57;1144923;-75
2023/09/26 19:04:12;;;;;;;23.45;17.20;;;;;;;21.05;100.00;101438.12;4939078;57;1145540;-74
2023/09/26 19:09:18;;;;;;;27.52;19.12;;;;;;;20.98;100.00;101449.18;4968956;58;1144956;-71
2023/09/26 19:14:24;;;;;;;25.68;19.10;;;;;;;20.91;100.00;101443.63;5038676;57;1144985;-76
2023/09/26 19:19:30;;;;;;;35.00;19.65;;;;;;;20.80;100.00;101447.94;5062019;56;1145187;-72
2023/09/26 19:24:36;;;;;;;45.34;23.82;;;;;;;20.73;100.00;101446.09;5033954;56;1145039;-76
2023/09/26 19:29:43;;;;;;;34.33;22.50;;;;;;;20.64;100.00;101447.88;5034642;57;1145110;-76
2023/09/26 19:34:48;;;;;;;31.47;22.88;;;;;;;20.49;100.00;101448.99;5009590;57;1145164;-73
2023/09/26 19:39:54;;;;;;;36.60;23.47;;;;;;;20.41;100.00;101440.06;4929357;58;1145293;-73
2023/09/26 19:45:00;;;;;;;31.17;23.70;;;;;;;20.30;100.00;101439.31;5033928;57;1145198;-75
2023/09/26 19:50:06;;;;;;;29.25;21.57;;;;;;;20.22;100.00;101434.38;4985274;57;1145196;-73
2023/09/26 19:55:12;;;;;;;37.15;23.95;;;;;;;20.13;100.00;101431.31;4937950;58;1145208;-73
2023/09/26 20:00:19;;;;;;;37.45;22.52;;;;;;;20.01;100.00;101433.44;5040355;57;1145157;-72
2023/09/26 20:05:24;;;;;;;36.58;22.87;;;;;;;19.88;100.00;101428.95;5019119;57;1145027;-72
2023/09/26 20:10:31;;;;;;;40.67;23.92;;;;;;;19.81;100.00;101444.86;5048277;56;1145232;-71
2023/09/26 20:15:36;;;;;;;29.96;22.40;;;;;;;19.81;100.00;101444.86;5021733;57;1145214;-71
2023/09/26 20:20:42;;;;;;;31.70;22.85;;;;;;;19.80;100.00;101447.70;5045697;56;1144752;-73
2023/09/26 20:25:47;;;;;;;29.65;21.10;;;;;;;19.73;100.00;101455.52;5000782;56;1144819;-71
2023/09/26 20:30:53;;;;;;;43.63;23.30;;;;;;;19.66;100.00;101447.27;4941552;57;1145193;-71
2023/09/26 20:36:00;;;;;;;41.77;23.83;;;;;;;19.61;100.00;101449.56;5066792;56;1145155;-73
2023/09/26 20:41:08;;;;;;;35.05;22.13;;;;;;;19.46;100.00;101437.66;5014252;56;1145174;-73
2023/09/26 20:46:14;;;;;;;35.78;23.35;;;;;;;19.46;100.00;101437.66;4998109;56;1145073;-73
2023/09/26 20:51:20;;;;;;;36.00;23.62;;;;;;;19.47;100.00;101446.05;5021397;57;1145122;-73
2023/09/26 20:56:25;;;;;;;40.88;22.20;;;;;;;19.47;100.00;101445.21;5020509;57;1145192;-72
2023/09/26 21:01:31;;;;;;;35.78;22.00;;;;;;;19.43;100.00;101447.84;5019446;57;1144893;-72
2023/09/26 21:06:37;;;;;;;36.43;23.23;;;;;;;19.45;100.00;101453.41;5032417;56;1145044;-72
2023/09/26 21:11:42;;;;;;;41.45;24.77;;;;;;;19.44;100.00;101454.41;4959362;57;1144760;-72
2023/09/26 21:16:48;;;;;;;35.55;23.22;;;;;;;19.35;100.00;101452.66;4943572;57;1145088;-72
2023/09/26 21:21:54;;;;;;;34.43;22.63;;;;;;;19.35;100.00;101457.17;4958209;56;1145028;-71
2023/09/26 21:27:00;;;;;;;36.37;20.87;;;;;;;19.24;100.00;101458.25;4955080;57;1145088;-72
2023/09/26 21:32:05;;;;;;;33.60;23.34;;;;;;;19.20;100.00;101451.00;5042717;57;1144904;-72
2023/09/26 21:37:11;;;;;;;36.28;23.90;;;;;;;19.22;100.00;101449.02;5003050;57;1145191;-72
2023/09/26 21:42:16;;;;;;;41.15;23.77;;;;;;;19.18;100.00;101446.78;5015411;57;1145185;-72
2023/09/26 21:47:22;;;;;;;45.67;23.18;;;;;;;19.15;100.00;101445.24;4918951;56;1145109;-72
2023/09/26 21:52:28;;;;;;;41.02;23.83;;;;;;;19.12;100.00;101445.53;4918327;56;1144937;-72
2023/09/26 21:57:34;;;;;;;43.60;25.37;;;;;;;19.03;100.00;101441.09;4988939;57;1145056;-72
2023/09/26 22:02:39;;;;;;;41.63;23.98;;;;;;;19.00;100.00;101444.57;5010829;57;1145062;-72
2023/09/26 22:07:48;;;;;;;34.38;21.52;;;;;;;18.98;100.00;101440.70;4931237;58;1152424;-73
2023/09/26 22:12:54;;;;;;;37.97;23.37;;;;;;;18.99;100.00;101447.75;4915735;57;1145159;-71
2023/09/26 22:17:59;;;;;;;41.33;23.22;;;;;;;18.99;100.00;101443.73;5013057;56;1145056;-72
2023/09/26 22:23:07;;;;;;;38.26;24.00;;;;;;;18.95;100.00;101441.84;4996232;56;1145057;-72
2023/09/26 22:28:12;;;;;;;29.77;20.65;;;;;;;18.89;100.00;101445.63;4916292;57;1145101;-72
2023/09/26 22:33:18;;;;;;;30.48;21.23;;;;;;;18.82;100.00;101435.99;5015574;56;1144905;-72
2023/09/26 22:38:23;;;;;;;34.30;22.30;;;;;;;18.72;100.00;101427.17;4995179;57;1144905;-72
2023/09/26 22:43:29;;;;;;;34.58;21.33;;;;;;;18.65;100.00;101422.05;5078996;56;1145168;-72